sensor_id;sensor_type;location;lat;lon;timestamp;pressure;altitude;pressure_sealevel;temperature;humidity
37778;BME280;23615;51.506;7.678;2023-03-26T00:01:02;99148.63;;;8.13;98.46
37778;BME280;23615;51.506;7.678;2023-03-26T00:03:31;99156.81;;;8.12;98.34
37778;BME280;23615;51.506;7.678;2023-03-26T00:06:06;99145.72;;;7.92;98.92
37778;BME280;23615;51.506;7.678;2023-03-26T00:08:36;99150.22;;;8.03;99.19
37778;BME280;23615;51.506;7.678;2023-03-26T00:11:03;99153.03;;;8.08;98.58
37778;BME280;23615;51.506;7.678;2023-03-26T00:13:30;99155.63;;;7.84;99.47
37778;BME280;23615;51.506;7.678;2023-03-26T00:15:56;99156.25;;;7.98;100.00
37778;BME280;23615;51.506;7.678;2023-03-26T00:18:22;99163.19;;;8.11;98.86
37778;BME280;23615;51.506;7.678;2023-03-26T00:20:54;99156.56;;;8.02;99.40
37778;BME280;23615;51.506;7.678;2023-03-26T00:23:19;99153.25;;;8.06;99.28
37778;BME280;23615;51.506;7.678;2023-03-26T00:25:44;99164.72;;;8.18;99.05
37778;BME280;23615;51.506;7.678;2023-03-26T00:28:15;99159.97;;;8.09;99.97
37778;BME280;23615;51.506;7.678;2023-03-26T00:30:41;99153.25;;;8.06;99.77
37778;BME280;23615;51.506;7.678;2023-03-26T00:33:06;99159.38;;;8.07;100.00
37778;BME280;23615;51.506;7.678;2023-03-26T00:35:35;99162.28;;;8.17;100.00
37778;BME280;23615;51.506;7.678;2023-03-26T00:38:01;99141.63;;;8.19;100.00
37778;BME280;23615;51.506;7.678;2023-03-26T00:40:26;99146.44;;;8.22;100.00
37778;BME280;23615;51.506;7.678;2023-03-26T00:42:51;99138.47;;;8.22;100.00
37778;BME280;23615;51.506;7.678;2023-03-26T00:45:17;99139.75;;;8.19;100.00
37778;BME280;23615;51.506;7.678;2023-03-26T00:47:45;99141.59;;;8.07;100.00
37778;BME280;23615;51.506;7.678;2023-03-26T00:50:11;99144.28;;;8.19;100.00
37778;BME280;23615;51.506;7.678;2023-03-26T00:52:41;99138.59;;;8.15;100.00
37778;BME280;23615;51.506;7.678;2023-03-26T00:55:07;99132.00;;;8.30;100.00
37778;BME280;23615;51.506;7.678;2023-03-26T00:57:33;99133.28;;;8.15;100.00
37778;BME280;23615;51.506;7.678;2023-03-26T00:59:58;99131.22;;;8.17;100.00
37778;BME280;23615;51.506;7.678;2023-03-26T01:02:23;99127.25;;;8.20;100.00
37778;BME280;23615;51.506;7.678;2023-03-26T01:04:58;99122.06;;;8.13;100.00
37778;BME280;23615;51.506;7.678;2023-03-26T01:07:26;99120.69;;;8.22;100.00
37778;BME280;23615;51.506;7.678;2023-03-26T01:09:55;99119.31;;;8.08;100.00
37778;BME280;23615;51.506;7.678;2023-03-26T01:12:24;99111.09;;;7.98;100.00
37778;BME280;23615;51.506;7.678;2023-03-26T01:14:52;99108.88;;;7.95;100.00
37778;BME280;23615;51.506;7.678;2023-03-26T01:17:19;99114.06;;;8.02;100.00
37778;BME280;23615;51.506;7.678;2023-03-26T01:22:23;99113.28;;;7.89;100.00
37778;BME280;23615;51.506;7.678;2023-03-26T01:24:49;99111.88;;;7.87;100.00
37778;BME280;23615;51.506;7.678;2023-03-26T01:27:42;99113.50;;;7.88;100.00
37778;BME280;23615;51.506;7.678;2023-03-26T01:35:56;99106.13;;;8.02;100.00
37778;BME280;23615;51.506;7.678;2023-03-26T01:38:36;99098.13;;;8.02;100.00
37778;BME280;23615;51.506;7.678;2023-03-26T01:41:13;99094.72;;;8.24;100.00
37778;BME280;23615;51.506;7.678;2023-03-26T01:44:33;99100.88;;;7.83;100.00
37778;BME280;23615;51.506;7.678;2023-03-26T01:47:02;99090.19;;;8.02;100.00
37778;BME280;23615;51.506;7.678;2023-03-26T01:49:28;99092.13;;;7.95;100.00
37778;BME280;23615;51.506;7.678;2023-03-26T01:51:55;99092.50;;;8.21;100.00
37778;BME280;23615;51.506;7.678;2023-03-26T01:54:23;99079.44;;;7.97;100.00
37778;BME280;23615;51.506;7.678;2023-03-26T02:07:59;99079.34;;;8.26;99.99
37778;BME280;23615;51.506;7.678;2023-03-26T02:10:35;99074.47;;;8.12;99.69
37778;BME280;23615;51.506;7.678;2023-03-26T02:13:01;99074.47;;;8.23;99.96
37778;BME280;23615;51.506;7.678;2023-03-26T02:15:27;99066.63;;;8.17;100.00
37778;BME280;23615;51.506;7.678;2023-03-26T02:17:52;99063.41;;;8.15;99.77
37778;BME280;23615;51.506;7.678;2023-03-26T02:20:19;99054.16;;;8.17;100.00
37778;BME280;23615;51.506;7.678;2023-03-26T02:22:45;99052.66;;;8.10;100.00
37778;BME280;23615;51.506;7.678;2023-03-26T02:25:17;99057.84;;;8.16;99.51
37778;BME280;23615;51.506;7.678;2023-03-26T02:27:43;99047.94;;;8.00;100.00
37778;BME280;23615;51.506;7.678;2023-03-26T02:30:12;99045.47;;;8.10;100.00
37778;BME280;23615;51.506;7.678;2023-03-26T02:32:37;99044.56;;;8.05;100.00
37778;BME280;23615;51.506;7.678;2023-03-26T02:35:03;99036.38;;;8.41;99.14
37778;BME280;23615;51.506;7.678;2023-03-26T02:37:29;99026.56;;;8.07;99.91
37778;BME280;23615;51.506;7.678;2023-03-26T02:39:57;99035.19;;;8.02;100.00
37778;BME280;23615;51.506;7.678;2023-03-26T02:42:23;99029.00;;;8.08;100.00
37778;BME280;23615;51.506;7.678;2023-03-26T02:44:48;99023.66;;;8.20;99.38
37778;BME280;23615;51.506;7.678;2023-03-26T02:47:13;99015.69;;;7.97;99.18
37778;BME280;23615;51.506;7.678;2023-03-26T02:49:38;99018.94;;;7.99;100.00
37778;BME280;23615;51.506;7.678;2023-03-26T02:52:04;99014.66;;;7.86;100.00
37778;BME280;23615;51.506;7.678;2023-03-26T02:54:34;99016.28;;;7.99;99.75
37778;BME280;23615;51.506;7.678;2023-03-26T02:56:59;99018.00;;;8.16;99.30
37778;BME280;23615;51.506;7.678;2023-03-26T02:59:25;99014.66;;;8.09;99.76
37778;BME280;23615;51.506;7.678;2023-03-26T03:01:51;99009.47;;;8.03;100.00
37778;BME280;23615;51.506;7.678;2023-03-26T03:04:16;99001.75;;;7.89;100.00
37778;BME280;23615;51.506;7.678;2023-03-26T03:06:43;99007.13;;;7.83;100.00
37778;BME280;23615;51.506;7.678;2023-03-26T03:09:09;99007.03;;;7.78;100.00
37778;BME280;23615;51.506;7.678;2023-03-26T03:11:36;99005.06;;;7.97;100.00
37778;BME280;23615;51.506;7.678;2023-03-26T03:14:02;99004.13;;;8.03;100.00
37778;BME280;23615;51.506;7.678;2023-03-26T03:16:28;99008.28;;;8.22;99.10
37778;BME280;23615;51.506;7.678;2023-03-26T03:18:54;99014.75;;;8.03;98.91
37778;BME280;23615;51.506;7.678;2023-03-26T03:21:21;99008.09;;;7.88;99.95
37778;BME280;23615;51.506;7.678;2023-03-26T03:23:47;99008.78;;;7.72;100.00
37778;BME280;23615;51.506;7.678;2023-03-26T03:26:23;99000.44;;;7.69;100.00
37778;BME280;23615;51.506;7.678;2023-03-26T03:28:52;98985.44;;;7.74;100.00
37778;BME280;23615;51.506;7.678;2023-03-26T03:31:18;98996.53;;;7.71;100.00
37778;BME280;23615;51.506;7.678;2023-03-26T03:33:45;98988.09;;;7.86;100.00
37778;BME280;23615;51.506;7.678;2023-03-26T03:36:12;98978.53;;;7.73;100.00
37778;BME280;23615;51.506;7.678;2023-03-26T03:38:41;98980.38;;;7.84;100.00
37778;BME280;23615;51.506;7.678;2023-03-26T03:41:06;98972.88;;;7.81;100.00
37778;BME280;23615;51.506;7.678;2023-03-26T03:43:33;98965.13;;;7.80;100.00
37778;BME280;23615;51.506;7.678;2023-03-26T03:45:59;98973.19;;;7.85;100.00
37778;BME280;23615;51.506;7.678;2023-03-26T03:48:25;98971.13;;;7.99;100.00
37778;BME280;23615;51.506;7.678;2023-03-26T03:50:50;98965.91;;;8.04;100.00
37778;BME280;23615;51.506;7.678;2023-03-26T03:53:16;98963.16;;;7.99;100.00
37778;BME280;23615;51.506;7.678;2023-03-26T03:55:42;98960.06;;;7.78;100.00
37778;BME280;23615;51.506;7.678;2023-03-26T03:58:26;98961.44;;;7.81;100.00
37778;BME280;23615;51.506;7.678;2023-03-26T04:00:53;98955.78;;;7.66;100.00
37778;BME280;23615;51.506;7.678;2023-03-26T04:03:24;98957.63;;;7.65;100.00
37778;BME280;23615;51.506;7.678;2023-03-26T04:05:52;98959.00;;;7.68;100.00
37778;BME280;23615;51.506;7.678;2023-03-26T04:08:19;98944.69;;;7.69;100.00
37778;BME280;23615;51.506;7.678;2023-03-26T04:10:45;98944.34;;;7.88;100.00
37778;BME280;23615;51.506;7.678;2023-03-26T04:13:11;98942.88;;;7.81;100.00
37778;BME280;23615;51.506;7.678;2023-03-26T04:15:37;98938.59;;;7.80;100.00
37778;BME280;23615;51.506;7.678;2023-03-26T04:18:03;98936.97;;;7.79;100.00
37778;BME280;23615;51.506;7.678;2023-03-26T04:20:28;98937.78;;;7.79;100.00
37778;BME280;23615;51.506;7.678;2023-03-26T04:22:53;98934.31;;;7.79;100.00
37778;BME280;23615;51.506;7.678;2023-03-26T04:25:19;98934.91;;;7.81;100.00
37778;BME280;23615;51.506;7.678;2023-03-26T04:27:45;98928.56;;;7.82;100.00
37778;BME280;23615;51.506;7.678;2023-03-26T04:30:14;98923.69;;;7.79;100.00
37778;BME280;23615;51.506;7.678;2023-03-26T04:32:41;98917.13;;;7.81;100.00
37778;BME280;23615;51.506;7.678;2023-03-26T04:35:09;98917.00;;;7.88;100.00
37778;BME280;23615;51.506;7.678;2023-03-26T04:37:37;98908.69;;;7.73;100.00
37778;BME280;23615;51.506;7.678;2023-03-26T04:40:10;98912.63;;;7.82;100.00
37778;BME280;23615;51.506;7.678;2023-03-26T04:42:38;98908.44;;;7.74;100.00
37778;BME280;23615;51.506;7.678;2023-03-26T04:45:10;98906.06;;;7.73;100.00
37778;BME280;23615;51.506;7.678;2023-03-26T04:47:35;98899.34;;;7.70;100.00
37778;BME280;23615;51.506;7.678;2023-03-26T04:50:04;98900.75;;;7.61;100.00
37778;BME280;23615;51.506;7.678;2023-03-26T04:52:29;98887.69;;;7.60;100.00
37778;BME280;23615;51.506;7.678;2023-03-26T04:54:55;98888.97;;;7.57;100.00
37778;BME280;23615;51.506;7.678;2023-03-26T04:57:26;98885.25;;;7.58;100.00
37778;BME280;23615;51.506;7.678;2023-03-26T04:59:54;98884.81;;;7.73;100.00
37778;BME280;23615;51.506;7.678;2023-03-26T05:02:20;98880.09;;;7.63;99.78
37778;BME280;23615;51.506;7.678;2023-03-26T05:04:45;98882.97;;;7.50;100.00
37778;BME280;23615;51.506;7.678;2023-03-26T05:07:16;98873.97;;;7.51;100.00
37778;BME280;23615;51.506;7.678;2023-03-26T05:09:41;98869.59;;;7.45;100.00
37778;BME280;23615;51.506;7.678;2023-03-26T05:12:07;98869.38;;;7.46;100.00
37778;BME280;23615;51.506;7.678;2023-03-26T05:14:32;98872.81;;;7.35;100.00
37778;BME280;23615;51.506;7.678;2023-03-26T05:16:58;98865.91;;;7.46;100.00
37778;BME280;23615;51.506;7.678;2023-03-26T05:19:24;98865.06;;;7.57;99.93
37778;BME280;23615;51.506;7.678;2023-03-26T05:21:50;98858.94;;;7.68;98.81
37778;BME280;23615;51.506;7.678;2023-03-26T05:24:15;98852.34;;;7.82;98.93
37778;BME280;23615;51.506;7.678;2023-03-26T05:26:40;98852.16;;;7.61;98.54
37778;BME280;23615;51.506;7.678;2023-03-26T05:29:05;98848.81;;;7.54;99.92
37778;BME280;23615;51.506;7.678;2023-03-26T05:31:31;98850.44;;;7.43;100.00
37778;BME280;23615;51.506;7.678;2023-03-26T05:33:57;98842.94;;;7.40;100.00
37778;BME280;23615;51.506;7.678;2023-03-26T05:36:24;98841.31;;;7.39;100.00
37778;BME280;23615;51.506;7.678;2023-03-26T05:38:50;98840.28;;;7.40;100.00
37778;BME280;23615;51.506;7.678;2023-03-26T05:41:17;98835.09;;;7.45;100.00
37778;BME280;23615;51.506;7.678;2023-03-26T05:43:43;98830.13;;;7.48;100.00
37778;BME280;23615;51.506;7.678;2023-03-26T05:46:10;98830.69;;;7.50;100.00
37778;BME280;23615;51.506;7.678;2023-03-26T05:48:35;98827.59;;;7.54;100.00
37778;BME280;23615;51.506;7.678;2023-03-26T05:51:02;98829.75;;;7.57;100.00
37778;BME280;23615;51.506;7.678;2023-03-26T05:53:27;98830.09;;;7.60;100.00
37778;BME280;23615;51.506;7.678;2023-03-26T05:55:53;98824.13;;;7.65;100.00
37778;BME280;23615;51.506;7.678;2023-03-26T05:58:26;98818.81;;;7.65;100.00
37778;BME280;23615;51.506;7.678;2023-03-26T06:00:57;98817.50;;;7.67;100.00
37778;BME280;23615;51.506;7.678;2023-03-26T06:03:23;98823.41;;;7.69;100.00
37778;BME280;23615;51.506;7.678;2023-03-26T06:05:48;98818.09;;;7.69;100.00
37778;BME280;23615;51.506;7.678;2023-03-26T06:08:14;98805.72;;;7.75;100.00
37778;BME280;23615;51.506;7.678;2023-03-26T06:10:39;98804.44;;;7.77;100.00
37778;BME280;23615;51.506;7.678;2023-03-26T06:13:05;98807.22;;;7.82;100.00
37778;BME280;23615;51.506;7.678;2023-03-26T06:15:30;98805.13;;;7.84;100.00
37778;BME280;23615;51.506;7.678;2023-03-26T06:17:56;98799.34;;;7.87;100.00
37778;BME280;23615;51.506;7.678;2023-03-26T06:20:21;98795.06;;;7.86;100.00
37778;BME280;23615;51.506;7.678;2023-03-26T06:22:46;98802.00;;;7.87;100.00
37778;BME280;23615;51.506;7.678;2023-03-26T06:25:11;98792.19;;;7.88;100.00
37778;BME280;23615;51.506;7.678;2023-03-26T06:27:37;98791.94;;;7.89;100.00
37778;BME280;23615;51.506;7.678;2023-03-26T06:30:02;98790.41;;;7.94;100.00
37778;BME280;23615;51.506;7.678;2023-03-26T06:32:28;98784.06;;;7.95;100.00
37778;BME280;23615;51.506;7.678;2023-03-26T06:34:53;98786.03;;;7.99;100.00
37778;BME280;23615;51.506;7.678;2023-03-26T06:37:18;98775.72;;;8.03;100.00
37778;BME280;23615;51.506;7.678;2023-03-26T06:39:43;98773.63;;;8.05;100.00
37778;BME280;23615;51.506;7.678;2023-03-26T06:42:09;98781.38;;;8.06;100.00
37778;BME280;23615;51.506;7.678;2023-03-26T06:44:35;98774.78;;;8.09;100.00
37778;BME280;23615;51.506;7.678;2023-03-26T06:47:00;98772.94;;;8.09;100.00
37778;BME280;23615;51.506;7.678;2023-03-26T06:49:26;98770.59;;;8.13;100.00
37778;BME280;23615;51.506;7.678;2023-03-26T06:51:51;98771.16;;;8.15;100.00
37778;BME280;23615;51.506;7.678;2023-03-26T06:54:17;98768.28;;;8.16;100.00
37778;BME280;23615;51.506;7.678;2023-03-26T06:56:42;98773.09;;;8.19;100.00
37778;BME280;23615;51.506;7.678;2023-03-26T06:59:08;98770.44;;;8.19;100.00
37778;BME280;23615;51.506;7.678;2023-03-26T07:01:34;98774.97;;;8.19;100.00
37778;BME280;23615;51.506;7.678;2023-03-26T07:03:59;98769.50;;;8.25;100.00
37778;BME280;23615;51.506;7.678;2023-03-26T07:06:25;98772.41;;;8.24;100.00
37778;BME280;23615;51.506;7.678;2023-03-26T07:08:50;98768.34;;;8.33;100.00
37778;BME280;23615;51.506;7.678;2023-03-26T07:11:16;98770.06;;;8.27;100.00
37778;BME280;23615;51.506;7.678;2023-03-26T07:13:43;98768.84;;;8.18;100.00
37778;BME280;23615;51.506;7.678;2023-03-26T07:16:10;98765.38;;;8.18;100.00
37778;BME280;23615;51.506;7.678;2023-03-26T07:18:35;98759.81;;;8.19;100.00
37778;BME280;23615;51.506;7.678;2023-03-26T07:21:01;98765.00;;;8.26;100.00
37778;BME280;23615;51.506;7.678;2023-03-26T07:23:26;98764.50;;;8.29;100.00
37778;BME280;23615;51.506;7.678;2023-03-26T07:25:52;98753.19;;;8.34;100.00
37778;BME280;23615;51.506;7.678;2023-03-26T07:37:11;98743.84;;;8.48;100.00
37778;BME280;23615;51.506;7.678;2023-03-26T07:39:51;98740.66;;;8.46;100.00
37778;BME280;23615;51.506;7.678;2023-03-26T07:42:37;98737.66;;;8.42;100.00
37778;BME280;23615;51.506;7.678;2023-03-26T07:45:25;98738.00;;;8.46;100.00
37778;BME280;23615;51.506;7.678;2023-03-26T07:47:53;98731.13;;;8.50;100.00
37778;BME280;23615;51.506;7.678;2023-03-26T07:50:22;98735.06;;;8.47;100.00
37778;BME280;23615;51.506;7.678;2023-03-26T07:52:48;98733.63;;;8.56;100.00
37778;BME280;23615;51.506;7.678;2023-03-26T07:55:14;98732.28;;;8.54;100.00
37778;BME280;23615;51.506;7.678;2023-03-26T08:00:23;98719.06;;;8.59;100.00
37778;BME280;23615;51.506;7.678;2023-03-26T08:03:04;98727.25;;;8.57;100.00
37778;BME280;23615;51.506;7.678;2023-03-26T08:06:46;98726.72;;;8.55;100.00
37778;BME280;23615;51.506;7.678;2023-03-26T08:09:10;98724.59;;;8.57;100.00
37778;BME280;23615;51.506;7.678;2023-03-26T08:12:00;98714.88;;;8.63;100.00
37778;BME280;23615;51.506;7.678;2023-03-26T08:17:35;98715.75;;;8.69;100.00
37778;BME280;23615;51.506;7.678;2023-03-26T08:20:18;98704.94;;;8.75;100.00
37778;BME280;23615;51.506;7.678;2023-03-26T08:22:49;98713.81;;;8.81;100.00
37778;BME280;23615;51.506;7.678;2023-03-26T08:25:32;98709.59;;;8.85;100.00
37778;BME280;23615;51.506;7.678;2023-03-26T08:30:50;98704.59;;;8.88;100.00
37778;BME280;23615;51.506;7.678;2023-03-26T08:33:20;98704.94;;;8.92;100.00
37778;BME280;23615;51.506;7.678;2023-03-26T08:35:48;98705.72;;;8.92;100.00
37778;BME280;23615;51.506;7.678;2023-03-26T08:38:16;98696.19;;;8.96;100.00
37778;BME280;23615;51.506;7.678;2023-03-26T08:41:07;98699.47;;;9.04;100.00
37778;BME280;23615;51.506;7.678;2023-03-26T08:44:02;98690.16;;;9.01;100.00
37778;BME280;23615;51.506;7.678;2023-03-26T08:50:23;98688.53;;;9.00;100.00
37778;BME280;23615;51.506;7.678;2023-03-26T08:55:54;98685.63;;;9.01;100.00
37778;BME280;23615;51.506;7.678;2023-03-26T09:04:02;98692.31;;;9.04;100.00
37778;BME280;23615;51.506;7.678;2023-03-26T09:18:42;98677.22;;;9.10;100.00
37778;BME280;23615;51.506;7.678;2023-03-26T09:27:32;98678.63;;;8.95;100.00
37778;BME280;23615;51.506;7.678;2023-03-26T09:39:14;98672.25;;;8.96;100.00
37778;BME280;23615;51.506;7.678;2023-03-26T09:41:43;98673.41;;;9.00;100.00
37778;BME280;23615;51.506;7.678;2023-03-26T09:47:30;98670.97;;;8.99;100.00
37778;BME280;23615;51.506;7.678;2023-03-26T10:03:56;98667.81;;;9.24;100.00
37778;BME280;23615;51.506;7.678;2023-03-26T10:14:27;98660.44;;;9.31;100.00
37778;BME280;23615;51.506;7.678;2023-03-26T10:17:04;98655.31;;;9.24;100.00
37778;BME280;23615;51.506;7.678;2023-03-26T10:19:44;98665.34;;;9.17;100.00
37778;BME280;23615;51.506;7.678;2023-03-26T10:25:09;98654.50;;;9.24;100.00
37778;BME280;23615;51.506;7.678;2023-03-26T10:27:50;98647.22;;;9.36;100.00
37778;BME280;23615;51.506;7.678;2023-03-26T10:38:48;98653.22;;;9.26;100.00
37778;BME280;23615;51.506;7.678;2023-03-26T10:41:32;98642.22;;;9.18;100.00
37778;BME280;23615;51.506;7.678;2023-03-26T10:44:16;98651.47;;;9.15;100.00
37778;BME280;23615;51.506;7.678;2023-03-26T10:50:10;98647.81;;;9.21;100.00
37778;BME280;23615;51.506;7.678;2023-03-26T10:52:48;98647.34;;;9.24;100.00
37778;BME280;23615;51.506;7.678;2023-03-26T10:58:23;98638.47;;;9.41;100.00
37778;BME280;23615;51.506;7.678;2023-03-26T11:00:54;98641.66;;;9.37;100.00
37778;BME280;23615;51.506;7.678;2023-03-26T11:06:38;98641.09;;;9.35;100.00
37778;BME280;23615;51.506;7.678;2023-03-26T11:09:28;98635.19;;;9.33;100.00
37778;BME280;23615;51.506;7.678;2023-03-26T11:15:12;98629.38;;;9.36;100.00
37778;BME280;23615;51.506;7.678;2023-03-26T11:23:15;98626.97;;;9.35;100.00
37778;BME280;23615;51.506;7.678;2023-03-26T11:25:59;98632.53;;;9.33;100.00
37778;BME280;23615;51.506;7.678;2023-03-26T11:31:44;98617.28;;;9.29;100.00
37778;BME280;23615;51.506;7.678;2023-03-26T11:34:17;98614.91;;;9.27;100.00
37778;BME280;23615;51.506;7.678;2023-03-26T11:36:49;98626.09;;;9.29;100.00
37778;BME280;23615;51.506;7.678;2023-03-26T11:39:21;98628.22;;;9.27;100.00
37778;BME280;23615;51.506;7.678;2023-03-26T11:41:51;98629.41;;;9.15;100.00
37778;BME280;23615;51.506;7.678;2023-03-26T11:44:25;98626.38;;;9.06;99.84
37778;BME280;23615;51.506;7.678;2023-03-26T11:46:55;98619.75;;;9.09;99.87
37778;BME280;23615;51.506;7.678;2023-03-26T11:49:25;98614.88;;;9.00;99.12
37778;BME280;23615;51.506;7.678;2023-03-26T11:51:53;98623.38;;;9.02;99.47
37778;BME280;23615;51.506;7.678;2023-03-26T11:54:18;98622.53;;;9.19;99.45
37778;BME280;23615;51.506;7.678;2023-03-26T12:02:15;98615.66;;;9.23;99.29
37778;BME280;23615;51.506;7.678;2023-03-26T12:04:45;98614.09;;;9.27;99.08
37778;BME280;23615;51.506;7.678;2023-03-26T12:07:17;98608.91;;;9.15;100.00
37778;BME280;23615;51.506;7.678;2023-03-26T12:12:15;98606.63;;;9.24;100.00
37778;BME280;23615;51.506;7.678;2023-03-26T12:14:42;98609.38;;;9.34;99.25
37778;BME280;23615;51.506;7.678;2023-03-26T12:17:11;98605.69;;;9.35;100.00
37778;BME280;23615;51.506;7.678;2023-03-26T12:19:41;98609.59;;;9.54;97.77
37778;BME280;23615;51.506;7.678;2023-03-26T12:22:34;98601.19;;;9.67;96.96
37778;BME280;23615;51.506;7.678;2023-03-26T12:27:33;98602.81;;;9.42;99.04
37778;BME280;23615;51.506;7.678;2023-03-26T12:30:10;98599.66;;;9.45;99.50
37778;BME280;23615;51.506;7.678;2023-03-26T12:32:40;98595.28;;;9.60;98.03
37778;BME280;23615;51.506;7.678;2023-03-26T12:35:14;98599.78;;;9.60;97.51
37778;BME280;23615;51.506;7.678;2023-03-26T12:37:43;98591.34;;;9.68;96.63
37778;BME280;23615;51.506;7.678;2023-03-26T12:42:51;98593.78;;;9.43;97.54
37778;BME280;23615;51.506;7.678;2023-03-26T12:45:20;98592.22;;;9.47;98.05
37778;BME280;23615;51.506;7.678;2023-03-26T12:47:46;98594.09;;;9.46;97.84
37778;BME280;23615;51.506;7.678;2023-03-26T12:50:13;98600.91;;;9.64;96.87
37778;BME280;23615;51.506;7.678;2023-03-26T12:52:54;98597.44;;;9.63;97.26
37778;BME280;23615;51.506;7.678;2023-03-26T12:55:36;98598.25;;;9.64;98.04
37778;BME280;23615;51.506;7.678;2023-03-26T13:00:59;98587.69;;;9.74;98.53
37778;BME280;23615;51.506;7.678;2023-03-26T13:03:37;98591.22;;;9.85;98.22
37778;BME280;23615;51.506;7.678;2023-03-26T13:06:47;98582.97;;;9.86;96.93
37778;BME280;23615;51.506;7.678;2023-03-26T13:12:04;98581.69;;;9.94;96.71
37778;BME280;23615;51.506;7.678;2023-03-26T13:14:51;98581.22;;;10.02;96.57
37778;BME280;23615;51.506;7.678;2023-03-26T13:20:25;98579.69;;;10.06;94.30
37778;BME280;23615;51.506;7.678;2023-03-26T13:23:00;98587.66;;;10.01;94.55
37778;BME280;23615;51.506;7.678;2023-03-26T13:25:39;98578.22;;;9.93;94.88
37778;BME280;23615;51.506;7.678;2023-03-26T13:28:21;98579.00;;;9.89;95.36
37778;BME280;23615;51.506;7.678;2023-03-26T13:33:48;98575.00;;;9.86;95.69
37778;BME280;23615;51.506;7.678;2023-03-26T13:36:34;98568.69;;;9.97;95.78
37778;BME280;23615;51.506;7.678;2023-03-26T13:44:37;98575.16;;;10.06;95.03
37778;BME280;23615;51.506;7.678;2023-03-26T13:47:14;98567.66;;;10.03;94.90
37778;BME280;23615;51.506;7.678;2023-03-26T13:52:44;98569.81;;;10.06;94.16
37778;BME280;23615;51.506;7.678;2023-03-26T13:58:05;98573.38;;;10.17;92.64
37778;BME280;23615;51.506;7.678;2023-03-26T14:00:50;98569.16;;;10.21;91.53
37778;BME280;23615;51.506;7.678;2023-03-26T14:04:09;98571.06;;;10.26;92.04
37778;BME280;23615;51.506;7.678;2023-03-26T14:08:54;98574.38;;;10.11;93.89
37778;BME280;23615;51.506;7.678;2023-03-26T14:11:30;98573.19;;;9.92;92.54
37778;BME280;23615;51.506;7.678;2023-03-26T14:14:06;98572.72;;;10.00;91.94
37778;BME280;23615;51.506;7.678;2023-03-26T14:16:42;98571.03;;;9.89;93.39
37778;BME280;23615;51.506;7.678;2023-03-26T14:19:32;98575.53;;;9.83;93.83
37778;BME280;23615;51.506;7.678;2023-03-26T14:25:20;98586.38;;;9.50;93.93
37778;BME280;23615;51.506;7.678;2023-03-26T14:28:18;98581.50;;;9.42;94.21
37778;BME280;23615;51.506;7.678;2023-03-26T14:41:52;98601.19;;;9.41;95.81
37778;BME280;23615;51.506;7.678;2023-03-26T14:47:10;98602.41;;;9.55;95.62
37778;BME280;23615;51.506;7.678;2023-03-26T14:52:46;98601.63;;;9.54;94.74
37778;BME280;23615;51.506;7.678;2023-03-26T15:13:02;98625.34;;;9.34;95.92
37778;BME280;23615;51.506;7.678;2023-03-26T15:24:44;98644.84;;;9.39;97.81
37778;BME280;23615;51.506;7.678;2023-03-26T15:27:23;98636.44;;;9.26;96.54
37778;BME280;23615;51.506;7.678;2023-03-26T15:32:46;98654.16;;;9.15;96.48
37778;BME280;23615;51.506;7.678;2023-03-26T15:40:39;98666.63;;;8.93;97.21
37778;BME280;23615;51.506;7.678;2023-03-26T15:43:15;98668.97;;;8.89;97.49
37778;BME280;23615;51.506;7.678;2023-03-26T15:45:48;98666.25;;;8.84;97.29
37778;BME280;23615;51.506;7.678;2023-03-26T15:48:56;98687.13;;;8.76;97.07
37778;BME280;23615;51.506;7.678;2023-03-26T15:51:36;98690.38;;;8.61;97.45
37778;BME280;23615;51.506;7.678;2023-03-26T15:54:20;98686.75;;;8.50;97.71
37778;BME280;23615;51.506;7.678;2023-03-26T15:57:14;98692.22;;;8.60;98.46
37778;BME280;23615;51.506;7.678;2023-03-26T16:02:24;98689.03;;;8.42;99.69
37778;BME280;23615;51.506;7.678;2023-03-26T16:05:26;98694.66;;;8.45;100.00
37778;BME280;23615;51.506;7.678;2023-03-26T16:08:11;98703.19;;;8.47;99.91
37778;BME280;23615;51.506;7.678;2023-03-26T16:10:50;98702.13;;;8.48;99.52
37778;BME280;23615;51.506;7.678;2023-03-26T16:16:16;98717.19;;;8.59;98.98
37778;BME280;23615;51.506;7.678;2023-03-26T16:18:53;98718.00;;;8.43;99.91
37778;BME280;23615;51.506;7.678;2023-03-26T16:24:10;98718.28;;;8.30;100.00
37778;BME280;23615;51.506;7.678;2023-03-26T16:29:23;98730.31;;;8.33;100.00
37778;BME280;23615;51.506;7.678;2023-03-26T16:32:03;98742.69;;;8.27;100.00
37778;BME280;23615;51.506;7.678;2023-03-26T16:48:31;98764.22;;;7.97;99.49
37778;BME280;23615;51.506;7.678;2023-03-26T16:53:57;98777.53;;;7.85;100.00
37778;BME280;23615;51.506;7.678;2023-03-26T16:56:44;98789.47;;;7.71;99.83
37778;BME280;23615;51.506;7.678;2023-03-26T17:02:21;98800.53;;;7.68;100.00
37778;BME280;23615;51.506;7.678;2023-03-26T17:04:57;98798.69;;;7.69;100.00
37778;BME280;23615;51.506;7.678;2023-03-26T17:07:40;98818.59;;;7.55;100.00
37778;BME280;23615;51.506;7.678;2023-03-26T17:10:21;98822.59;;;7.57;100.00
37778;BME280;23615;51.506;7.678;2023-03-26T17:13:04;98824.66;;;7.67;100.00
37778;BME280;23615;51.506;7.678;2023-03-26T17:15:35;98832.31;;;7.63;100.00
37778;BME280;23615;51.506;7.678;2023-03-26T17:20:52;98832.53;;;7.50;100.00
37778;BME280;23615;51.506;7.678;2023-03-26T17:26:23;98853.31;;;7.53;100.00
37778;BME280;23615;51.506;7.678;2023-03-26T17:31:47;98866.31;;;7.66;100.00
37778;BME280;23615;51.506;7.678;2023-03-26T17:37:08;98878.47;;;7.50;100.00
37778;BME280;23615;51.506;7.678;2023-03-26T17:42:17;98885.75;;;7.55;100.00
37778;BME280;23615;51.506;7.678;2023-03-26T17:47:28;98895.06;;;7.58;100.00
37778;BME280;23615;51.506;7.678;2023-03-26T17:50:00;98893.81;;;7.60;100.00
37778;BME280;23615;51.506;7.678;2023-03-26T17:52:39;98895.31;;;7.56;100.00
37778;BME280;23615;51.506;7.678;2023-03-26T17:55:08;98908.81;;;7.55;100.00
37778;BME280;23615;51.506;7.678;2023-03-26T17:57:41;98916.19;;;7.53;100.00
37778;BME280;23615;51.506;7.678;2023-03-26T18:00:13;98915.63;;;7.50;100.00